Time;durP1;ratioP1;P1;durP2;ratioP2;P2;SDS_P1;SDS_P2;PMS_P1;PMS_P2;Temp;Humidity;BMP_temperature;BMP_pressure;BME280_temperature;BME280_humidity;BME280_pressure;Samples;Min_cycle;Max_cycle;Signal;HPM_P1;HPM_P2
2022/07/04 00:00:41;;;;;;;1.95;0.60;;;16.60;81.30;;;;;;2075533;28;20073;-92
2022/07/04 00:01:42;;;;;;;1.30;0.50;;;16.60;81.40;;;;;;2084779;28;20042;-94
2022/07/04 00:02:44;;;;;;;1.75;0.70;;;16.60;81.40;;;;;;2085507;28;20045;-93
2022/07/04 00:03:44;;;;;;;3.15;0.70;;;16.60;81.50;;;;;;2076986;28;20132;-92
2022/07/04 00:04:45;;;;;;;0.88;0.50;;;16.60;81.50;;;;;;2076121;28;20034;-93
2022/07/04 00:05:46;;;;;;;1.27;0.50;;;16.50;81.50;;;;;;2075129;28;20037;-93
2022/07/04 00:06:47;;;;;;;1.58;0.63;;;16.50;81.70;;;;;;2082127;28;20073;-92
2022/07/04 00:07:49;;;;;;;1.80;0.68;;;16.50;81.80;;;;;;2091102;28;20033;-92
2022/07/04 00:08:50;;;;;;;1.92;0.70;;;16.50;81.90;;;;;;2092046;28;20041;-92
2022/07/04 00:09:51;;;;;;;2.25;0.60;;;16.40;81.90;;;;;;2075327;28;20046;-92
2022/07/04 00:10:51;;;;;;;1.52;0.55;;;16.40;81.90;;;;;;2083312;28;20033;-93
2022/07/04 00:11:52;;;;;;;1.05;0.57;;;16.40;82.60;;;;;;2076323;28;20552;-93
2022/07/04 00:12:53;;;;;;;0.98;0.60;;;16.40;82.00;;;;;;2083689;28;20541;-93
2022/07/04 00:13:54;;;;;;;1.02;0.50;;;16.40;82.10;;;;;;2075292;28;20541;-92
2022/07/04 00:14:54;;;;;;;1.10;0.60;;;16.40;82.20;;;;;;2059015;28;20031;-93
2022/07/04 00:15:55;;;;;;;1.50;0.55;;;16.40;82.20;;;;;;2082353;28;20048;-93
2022/07/04 00:16:56;;;;;;;2.25;0.50;;;16.40;82.30;;;;;;2077411;28;20121;-92
2022/07/04 00:17:56;;;;;;;1.95;0.70;;;16.40;82.30;;;;;;2074840;28;20132;-93
2022/07/04 00:18:57;;;;;;;1.38;0.70;;;16.30;82.30;;;;;;2066794;28;20488;-94
2022/07/04 00:19:58;;;;;;;1.15;0.55;;;16.30;82.30;;;;;;2067106;28;20031;-93
2022/07/04 00:20:58;;;;;;;0.93;0.50;;;16.40;82.50;;;;;;2067998;28;20065;-93
2022/07/04 00:21:59;;;;;;;2.63;0.63;;;16.30;82.50;;;;;;2084764;28;20029;-93
2022/07/04 00:23:00;;;;;;;1.77;0.57;;;16.30;82.60;;;;;;2068943;28;20062;-93
2022/07/04 00:24:01;;;;;;;1.08;0.55;;;16.30;82.70;;;;;;2067935;28;20062;-93
2022/07/04 00:25:02;;;;;;;1.25;0.50;;;16.30;82.70;;;;;;2075925;28;20125;-93
2022/07/04 00:26:03;;;;;;;0.73;0.50;;;16.30;82.80;;;;;;2076217;28;20605;-93
2022/07/04 00:27:03;;;;;;;1.70;0.60;;;16.20;82.80;;;;;;2078645;28;20034;-93
2022/07/04 00:28:04;;;;;;;0.93;0.40;;;16.20;82.90;;;;;;2083880;28;20037;-93
2022/07/04 00:29:05;;;;;;;1.80;0.52;;;16.20;82.90;;;;;;2076638;28;20116;-93
2022/07/04 00:30:06;;;;;;;2.30;0.60;;;16.20;82.90;;;;;;2086613;28;20133;-94
2022/07/04 00:31:07;;;;;;;0.95;0.40;;;16.20;83.00;;;;;;2080514;28;20099;-93
2022/07/04 00:32:08;;;;;;;2.45;0.60;;;16.20;83.00;;;;;;2074733;28;20042;-93
2022/07/04 00:33:13;;;;;;;1.73;0.60;;;16.10;83.10;;;;;;2079228;28;20038;-93
2022/07/04 00:34:14;;;;;;;1.90;0.60;;;16.20;83.20;;;;;;2090014;28;20147;-93
2022/07/04 00:35:14;;;;;;;2.72;0.60;;;16.10;83.20;;;;;;2088382;28;20029;-93
2022/07/04 00:36:15;;;;;;;2.08;0.70;;;16.10;83.30;;;;;;2081543;28;20018;-94
2022/07/04 00:37:16;;;;;;;1.60;0.57;;;16.00;83.40;;;;;;2078807;28;20092;-94
2022/07/04 00:38:16;;;;;;;2.35;0.60;;;16.00;83.50;;;;;;2079092;28;20034;-93
2022/07/04 00:39:17;;;;;;;2.00;0.50;;;16.00;83.60;;;;;;2087974;28;20076;-93
2022/07/04 00:40:18;;;;;;;2.58;0.70;;;16.00;83.70;;;;;;2074124;28;20038;-93
2022/07/04 00:41:19;;;;;;;0.65;0.43;;;16.00;83.80;;;;;;2081887;28;20045;-93
2022/07/04 00:42:19;;;;;;;0.82;0.57;;;15.90;83.80;;;;;;2080952;28;20057;-93
2022/07/04 00:43:23;;;;;;;1.73;0.60;;;15.90;83.90;;;;;;2069169;28;20031;-93
2022/07/04 00:44:23;;;;;;;1.38;0.55;;;15.90;83.90;;;;;;2077486;28;20030;-93
2022/07/04 00:45:24;;;;;;;2.10;0.60;;;15.90;84.00;;;;;;2084425;28;20038;-92
2022/07/04 00:46:25;;;;;;;2.47;0.50;;;15.90;84.10;;;;;;2084723;28;20034;-93
2022/07/04 00:47:26;;;;;;;0.98;0.60;;;15.80;84.30;;;;;;2083880;28;20603;-92
2022/07/04 00:48:26;;;;;;;2.95;0.50;;;15.80;84.30;;;;;;2066139;28;20066;-93
2022/07/04 00:49:27;;;;;;;1.10;0.50;;;15.80;84.30;;;;;;2079312;28;20034;-93
2022/07/04 00:50:28;;;;;;;2.05;0.50;;;15.80;84.50;;;;;;2065790;28;20054;-93
2022/07/04 00:51:29;;;;;;;2.17;0.55;;;15.80;84.50;;;;;;2065853;28;20052;-93
2022/07/04 00:52:30;;;;;;;1.98;0.60;;;15.80;84.50;;;;;;2074048;28;20045;-94
2022/07/04 00:53:32;;;;;;;3.20;0.60;;;15.80;84.60;;;;;;2073863;28;20045;-93
2022/07/04 00:54:33;;;;;;;1.52;0.60;;;15.80;84.60;;;;;;2082255;28;20403;-93
2022/07/04 00:55:34;;;;;;;1.00;0.50;;;15.80;84.60;;;;;;2073988;28;20042;-93
2022/07/04 00:56:40;;;;;;;1.67;0.70;;;15.80;84.60;;;;;;2090205;28;20025;-93
2022/07/04 00:57:40;;;;;;;2.78;0.60;;;15.80;84.60;;;;;;2091435;28;20116;-93
2022/07/04 00:58:41;;;;;;;1.17;0.50;;;15.70;84.60;;;;;;2077470;28;20034;-94
2022/07/04 00:59:42;;;;;;;2.20;0.50;;;15.80;84.70;;;;;;2082150;28;20041;-94
2022/07/04 01:00:43;;;;;;;2.75;0.50;;;15.80;84.70;;;;;;2082108;28;20061;-93
2022/07/04 01:01:43;;;;;;;1.95;0.60;;;15.80;84.70;;;;;;2082001;28;20116;-92
2022/07/04 01:02:44;;;;;;;1.13;0.50;;;15.80;84.70;;;;;;2084510;28;20037;-93
2022/07/04 01:03:46;;;;;;;1.92;0.63;;;15.80;84.70;;;;;;2086652;28;20563;-93
2022/07/04 01:04:47;;;;;;;2.25;0.63;;;15.80;84.80;;;;;;2082301;28;20490;-93
2022/07/04 01:05:48;;;;;;;1.70;0.52;;;15.70;84.70;;;;;;2086286;28;20044;-93
2022/07/04 01:06:49;;;;;;;2.05;0.50;;;15.70;84.80;;;;;;2064699;28;20042;-93
2022/07/04 01:07:50;;;;;;;1.50;0.60;;;15.70;84.90;;;;;;2065715;28;20424;-92
2022/07/04 01:08:51;;;;;;;1.67;0.50;;;15.70;85.00;;;;;;2082185;28;20496;-93
2022/07/04 01:09:53;;;;;;;1.42;0.55;;;15.70;85.00;;;;;;2090094;28;20041;-93
2022/07/04 01:10:53;;;;;;;1.20;0.50;;;15.60;85.10;;;;;;2065928;28;20030;-93
2022/07/04 01:11:54;;;;;;;1.73;0.57;;;15.60;85.20;;;;;;2064542;28;20069;-93
2022/07/04 01:12:55;;;;;;;2.45;0.63;;;15.60;85.30;;;;;;2073098;28;20158;-93
2022/07/04 01:13:56;;;;;;;1.15;0.50;;;15.60;85.40;;;;;;2081017;28;20033;-93
2022/07/04 01:14:57;;;;;;;2.70;0.55;;;15.50;85.40;;;;;;2073989;28;20029;-93
2022/07/04 01:15:58;;;;;;;3.20;0.60;;;15.50;85.60;;;;;;2073466;28;20125;-93
2022/07/04 01:16:59;;;;;;;3.60;0.80;;;15.60;85.60;;;;;;2081769;28;20116;-93
2022/07/04 01:17:59;;;;;;;1.40;0.70;;;15.50;85.60;;;;;;2075301;28;20087;-92
2022/07/04 01:19:00;;;;;;;1.63;0.70;;;15.50;85.60;;;;;;2059255;28;20125;-91
2022/07/04 01:20:02;;;;;;;1.80;0.60;;;15.50;85.60;;;;;;2083664;28;20029;-93
2022/07/04 01:21:03;;;;;;;2.08;0.68;;;15.50;85.60;;;;;;2083517;28;20531;-93
2022/07/04 01:22:06;;;;;;;2.38;0.70;;;15.50;85.60;;;;;;2075566;28;20088;-93
2022/07/04 01:23:07;;;;;;;1.00;0.60;;;15.50;85.70;;;;;;2082864;28;20044;-92
2022/07/04 01:24:11;;;;;;;1.13;0.60;;;15.50;85.70;;;;;;2073856;28;20030;-93
2022/07/04 01:25:14;;;;;;;1.50;0.70;;;15.50;85.70;;;;;;2068557;28;20081;-92
2022/07/04 01:26:14;;;;;;;2.25;0.70;;;15.60;85.70;;;;;;2067441;28;20039;-92
2022/07/04 01:27:16;;;;;;;2.35;0.60;;;15.60;85.60;;;;;;2066714;28;20097;-92
2022/07/04 01:28:20;;;;;;;2.25;0.80;;;15.60;85.70;;;;;;2083597;28;20030;-92
2022/07/04 01:29:21;;;;;;;2.85;0.70;;;15.60;85.70;;;;;;2091997;28;20456;-93
2022/07/04 01:30:22;;;;;;;3.55;0.90;;;15.60;85.70;;;;;;2083182;28;20373;-92
2022/07/04 01:31:22;;;;;;;2.28;0.65;;;15.50;85.70;;;;;;2075146;28;20069;-92
2022/07/04 01:32:23;;;;;;;3.88;0.70;;;15.50;85.70;;;;;;2066855;28;20046;-93
2022/07/04 01:33:24;;;;;;;1.95;0.77;;;15.50;85.80;;;;;;2091332;28;20123;-92
2022/07/04 01:34:24;;;;;;;1.10;0.60;;;15.50;85.90;;;;;;2088071;28;20175;-92
2022/07/04 01:35:25;;;;;;;1.65;0.75;;;15.50;86.00;;;;;;2075254;28;20030;-93
2022/07/04 01:36:26;;;;;;;1.63;0.80;;;15.50;86.10;;;;;;2083137;28;20092;-92
2022/07/04 01:37:27;;;;;;;1.88;0.70;;;15.40;86.10;;;;;;2075094;28;20034;-92
2022/07/04 01:38:28;;;;;;;3.35;0.70;;;15.40;86.20;;;;;;2067150;28;20121;-92
2022/07/04 01:39:29;;;;;;;2.00;0.60;;;15.40;86.20;;;;;;2075172;28;20030;-93
2022/07/04 01:40:29;;;;;;;1.67;0.70;;;15.40;86.30;;;;;;2097544;28;20134;-93
2022/07/04 01:41:34;;;;;;;2.28;0.70;;;15.40;86.40;;;;;;2083136;28;20037;-93
2022/07/04 01:42:35;;;;;;;1.95;0.65;;;15.40;86.40;;;;;;2075603;28;20088;-93
2022/07/04 01:43:36;;;;;;;2.05;0.60;;;15.40;86.40;;;;;;2075165;28;20089;-93
2022/07/04 01:44:37;;;;;;;3.13;0.75;;;15.40;86.40;;;;;;2081592;28;20128;-93
2022/07/04 01:45:38;;;;;;;2.08;0.70;;;15.40;86.50;;;;;;2083172;28;20037;-93
2022/07/04 01:46:38;;;;;;;2.72;0.80;;;15.40;86.60;;;;;;2075270;28;20041;-93
2022/07/04 01:47:40;;;;;;;2.05;0.70;;;15.40;86.60;;;;;;2089303;28;20033;-93
2022/07/04 01:48:42;;;;;;;2.50;0.80;;;15.30;86.60;;;;;;2067576;28;20034;-93
2022/07/04 01:49:43;;;;;;;2.03;0.70;;;15.40;86.70;;;;;;2074163;28;20034;-93
2022/07/04 01:50:43;;;;;;;2.65;0.70;;;15.30;86.70;;;;;;2067115;28;20428;-93
2022/07/04 01:51:50;;;;;;;1.77;0.70;;;15.30;86.70;;;;;;2075060;28;20050;-94
2022/07/04 01:52:52;;;;;;;1.80;0.60;;;15.30;86.80;;;;;;2068647;28;20409;-93
2022/07/04 01:53:53;;;;;;;1.65;0.70;;;15.30;86.80;;;;;;2072573;28;20038;-93
2022/07/04 01:54:54;;;;;;;1.92;0.60;;;15.30;86.90;;;;;;2066484;28;20034;-94
2022/07/04 01:55:54;;;;;;;2.85;0.85;;;15.30;86.90;;;;;;2082633;28;20076;-93
2022/07/04 01:56:55;;;;;;;1.15;0.60;;;15.30;87.00;;;;;;2082362;28;20029;-93
2022/07/04 01:57:56;;;;;;;2.10;0.63;;;15.30;87.00;;;;;;2066921;28;20038;-93
2022/07/04 01:58:59;;;;;;;1.42;0.70;;;15.30;87.10;;;;;;2067145;28;20026;-93
2022/07/04 02:01:31;;;;;;;0.93;0.60;;;15.20;87.10;;;;;;2066977;28;20038;-94
2022/07/04 02:02:31;;;;;;;2.05;0.73;;;15.20;87.10;;;;;;2083189;28;20040;-93
2022/07/04 02:03:32;;;;;;;1.83;0.70;;;15.20;87.10;;;;;;2085034;28;20045;-94
2022/07/04 02:04:34;;;;;;;1.48;0.57;;;15.20;87.20;;;;;;2083168;28;20033;-93
2022/07/04 02:05:37;;;;;;;2.10;0.73;;;15.20;87.30;;;;;;2066206;28;20543;-93
2022/07/04 02:06:37;;;;;;;2.00;0.60;;;15.10;87.40;;;;;;2077348;28;20125;-93
2022/07/04 02:07:38;;;;;;;1.58;0.80;;;15.20;87.50;;;;;;2079647;28;20045;-93
2022/07/04 02:09:58;;;;;;;2.15;0.70;;;15.20;87.60;;;;;;2076657;28;20042;-93
2022/07/04 02:10:59;;;;;;;1.27;0.50;;;15.20;87.60;;;;;;2085192;28;20014;-92
2022/07/04 02:13:19;;;;;;;3.13;0.75;;;15.20;87.50;;;;;;2087641;28;20034;-93
2022/07/04 02:14:19;;;;;;;3.33;0.60;;;15.20;87.50;;;;;;2086568;28;20022;-93
2022/07/04 02:15:20;;;;;;;2.10;0.80;;;15.20;87.50;;;;;;2081774;28;20038;-93
2022/07/04 02:16:21;;;;;;;1.75;0.82;;;15.20;87.60;;;;;;2082602;28;20053;-93
2022/07/04 02:17:22;;;;;;;1.67;0.77;;;15.20;87.60;;;;;;2073706;28;20050;-93
2022/07/04 02:18:22;;;;;;;1.85;0.70;;;15.20;87.60;;;;;;2074031;28;20437;-92
2022/07/04 02:19:23;;;;;;;1.65;0.90;;;15.20;87.70;;;;;;2073956;28;20408;-93
2022/07/04 02:20:25;;;;;;;1.27;0.70;;;15.20;87.80;;;;;;2074291;28;20066;-92
2022/07/04 02:21:25;;;;;;;1.55;0.80;;;15.10;87.80;;;;;;2073755;28;20034;-92
2022/07/04 02:22:26;;;;;;;1.42;0.68;;;15.10;87.80;;;;;;2086643;28;20525;-93
2022/07/04 02:23:27;;;;;;;2.72;1.00;;;15.10;87.90;;;;;;2089824;28;20069;-93
2022/07/04 02:24:28;;;;;;;1.50;0.80;;;15.10;88.10;;;;;;2098192;28;20053;-93
2022/07/04 02:25:28;;;;;;;1.58;0.90;;;15.10;88.20;;;;;;2089694;28;20053;-93
2022/07/04 02:26:29;;;;;;;1.88;0.95;;;15.10;88.20;;;;;;2081951;28;20022;-93
2022/07/04 02:27:30;;;;;;;2.67;0.90;;;15.00;88.20;;;;;;2075191;28;20054;-93
2022/07/04 02:28:30;;;;;;;2.35;1.00;;;15.10;88.30;;;;;;2065000;28;20031;-93
2022/07/04 02:29:31;;;;;;;1.70;0.80;;;15.00;88.30;;;;;;2064435;28;20034;-91
2022/07/04 02:30:32;;;;;;;2.78;1.08;;;15.00;88.40;;;;;;2085380;28;20047;-92
2022/07/04 02:31:32;;;;;;;1.83;1.05;;;15.00;88.40;;;;;;2073976;28;20109;-92
2022/07/04 02:32:33;;;;;;;2.22;1.13;;;15.00;88.50;;;;;;2092184;28;20044;-93
2022/07/04 02:33:34;;;;;;;2.78;1.10;;;15.00;88.50;;;;;;2096957;28;20052;-92
2022/07/04 02:34:35;;;;;;;2.42;1.00;;;15.00;88.60;;;;;;2088165;28;20057;-92
2022/07/04 02:35:36;;;;;;;2.00;1.08;;;15.00;88.60;;;;;;2087875;28;20034;-93
2022/07/04 02:36:36;;;;;;;2.30;1.10;;;15.00;88.60;;;;;;2071221;28;20046;-92
2022/07/04 02:37:38;;;;;;;2.17;1.10;;;15.00;88.70;;;;;;2084085;28;20030;-92
2022/07/04 02:38:38;;;;;;;2.08;1.10;;;15.00;88.70;;;;;;2086858;28;20083;-93
2022/07/04 02:39:39;;;;;;;2.90;1.05;;;15.00;88.70;;;;;;2089666;28;20038;-93
2022/07/04 02:40:40;;;;;;;2.42;1.10;;;15.00;88.70;;;;;;2083389;28;20045;-93
2022/07/04 02:41:43;;;;;;;1.98;1.00;;;15.00;88.80;;;;;;2084555;28;20105;-93
2022/07/04 02:42:44;;;;;;;1.63;1.20;;;15.00;88.80;;;;;;2092481;28;20085;-92
2022/07/04 02:43:44;;;;;;;4.05;1.23;;;15.00;88.80;;;;;;2089426;28;20097;-94
2022/07/04 02:44:45;;;;;;;2.35;1.17;;;15.00;88.80;;;;;;2073091;28;20042;-93
2022/07/04 02:45:46;;;;;;;2.67;1.30;;;15.00;88.90;;;;;;2069215;28;20027;-93
2022/07/04 02:46:47;;;;;;;2.78;1.10;;;15.00;89.00;;;;;;2079651;28;20468;-92
2022/07/04 02:47:47;;;;;;;1.65;1.00;;;14.90;89.10;;;;;;2076566;28;20101;-93
2022/07/04 02:48:48;;;;;;;1.65;1.10;;;14.90;89.20;;;;;;2076514;28;20113;-92
2022/07/04 02:49:49;;;;;;;2.22;1.27;;;14.90;89.20;;;;;;2068288;28;20031;-93
2022/07/04 02:50:50;;;;;;;2.33;1.40;;;14.90;89.30;;;;;;2067578;28;20495;-94
2022/07/04 02:51:51;;;;;;;3.10;1.23;;;14.90;89.30;;;;;;2067871;28;20070;-92
2022/07/04 02:52:51;;;;;;;2.72;1.38;;;14.90;89.40;;;;;;2073253;28;20037;-92
2022/07/04 02:53:52;;;;;;;2.42;1.13;;;14.90;89.50;;;;;;2067581;28;20038;-92
2022/07/04 02:54:53;;;;;;;2.47;1.30;;;14.90;89.50;;;;;;2073131;28;20038;-93
2022/07/04 02:55:54;;;;;;;1.73;1.17;;;14.90;89.50;;;;;;2088544;28;20586;-93
2022/07/04 02:56:55;;;;;;;2.20;1.40;;;14.90;89.60;;;;;;2068717;28;20038;-93
2022/07/04 02:57:55;;;;;;;2.75;1.48;;;14.90;89.60;;;;;;2066484;28;20133;-92
2022/07/04 02:58:56;;;;;;;2.70;1.40;;;14.90;89.60;;;;;;2074342;28;20121;-93
2022/07/04 02:59:57;;;;;;;2.47;1.33;;;14.90;89.60;;;;;;2058633;28;20099;-92
2022/07/04 03:00:58;;;;;;;2.78;1.33;;;14.90;89.60;;;;;;2067073;28;20426;-93
2022/07/04 03:01:58;;;;;;;2.05;1.30;;;14.90;89.70;;;;;;2071882;28;20035;-92
2022/07/04 03:02:59;;;;;;;3.58;1.50;;;14.90;89.60;;;;;;2066690;28;20215;-93
2022/07/04 03:04:00;;;;;;;2.70;1.42;;;14.90;89.60;;;;;;2074964;28;20052;-93
2022/07/04 03:05:00;;;;;;;2.67;1.40;;;14.90;89.60;;;;;;2065779;28;20041;-93
2022/07/04 03:06:01;;;;;;;2.95;1.40;;;15.00;89.60;;;;;;2066043;28;20088;-92
2022/07/04 03:07:02;;;;;;;2.80;1.48;;;14.90;89.60;;;;;;2074270;28;20030;-92
2022/07/04 03:08:03;;;;;;;2.72;1.33;;;14.90;89.80;;;;;;2074678;28;20049;-93
2022/07/04 03:09:03;;;;;;;1.98;1.33;;;14.90;89.90;;;;;;2074498;28;20543;-93
2022/07/04 03:10:04;;;;;;;2.42;1.30;;;14.90;90.00;;;;;;2066548;28;20038;-92
2022/07/04 03:11:06;;;;;;;3.72;1.77;;;14.80;90.00;;;;;;2066318;28;20507;-93
2022/07/04 03:12:07;;;;;;;3.47;1.40;;;14.80;90.00;;;;;;2065293;28;20045;-93
2022/07/04 03:13:09;;;;;;;3.58;1.40;;;14.80;90.00;;;;;;2064500;28;20159;-93
2022/07/04 03:14:10;;;;;;;3.35;1.73;;;14.80;90.00;;;;;;2074648;28;20124;-93
2022/07/04 03:15:10;;;;;;;4.00;1.77;;;14.80;90.00;;;;;;2082797;28;20109;-92
2022/07/04 03:16:11;;;;;;;3.17;1.52;;;14.80;90.10;;;;;;2066117;28;20041;-93
2022/07/04 03:17:13;;;;;;;2.72;1.67;;;14.90;90.10;;;;;;2071642;28;20501;-93
2022/07/04 03:18:14;;;;;;;3.38;1.70;;;14.80;90.10;;;;;;2066484;28;20035;-93
2022/07/04 03:19:17;;;;;;;3.90;1.80;;;14.90;90.10;;;;;;2066776;28;20073;-92
2022/07/04 03:20:17;;;;;;;2.20;1.50;;;14.90;90.10;;;;;;2074353;28;20038;-92
2022/07/04 03:21:18;;;;;;;3.38;1.70;;;14.80;90.10;;;;;;2065528;28;20042;-93
2022/07/04 03:22:19;;;;;;;3.45;1.85;;;14.80;90.10;;;;;;2066073;28;20500;-93
2022/07/04 03:23:20;;;;;;;3.25;1.73;;;14.80;90.10;;;;;;2074023;28;20077;-93
2022/07/04 03:24:21;;;;;;;2.53;1.50;;;14.80;90.20;;;;;;2066201;28;20496;-93
2022/07/04 03:25:21;;;;;;;3.78;1.88;;;14.80;90.20;;;;;;2066098;28;20042;-93
2022/07/04 03:26:23;;;;;;;3.28;1.75;;;14.80;90.20;;;;;;2062102;28;20046;-93
2022/07/04 03:27:24;;;;;;;2.80;1.55;;;14.80;90.20;;;;;;2074464;28;20059;-93
2022/07/04 03:28:25;;;;;;;2.85;1.58;;;14.80;90.20;;;;;;2066259;28;20042;-94
2022/07/04 03:29:26;;;;;;;2.10;1.50;;;14.80;90.20;;;;;;2074179;28;20042;-93
2022/07/04 03:30:27;;;;;;;4.47;1.80;;;14.80;90.20;;;;;;2082541;28;20511;-93
2022/07/04 03:31:29;;;;;;;2.38;1.60;;;14.80;90.30;;;;;;2074328;28;20046;-93
2022/07/04 03:32:29;;;;;;;2.65;1.70;;;14.80;90.30;;;;;;2082567;28;20030;-94
2022/07/04 03:33:30;;;;;;;3.80;2.00;;;14.80;90.30;;;;;;2073930;28;20086;-94
2022/07/04 03:34:31;;;;;;;4.32;1.83;;;14.80;90.30;;;;;;2074443;28;20138;-93
2022/07/04 03:35:32;;;;;;;2.97;1.67;;;14.80;90.30;;;;;;2066118;28;20041;-93
2022/07/04 03:36:33;;;;;;;3.05;1.70;;;14.80;90.30;;;;;;2065670;28;20066;-93
2022/07/04 03:37:33;;;;;;;2.30;1.58;;;14.80;90.60;;;;;;2074203;28;20507;-93
2022/07/04 03:38:34;;;;;;;3.17;1.75;;;14.80;90.30;;;;;;2082494;28;20487;-94
2022/07/04 03:39:34;;;;;;;2.00;1.50;;;14.80;90.30;;;;;;2075380;28;20377;-93
2022/07/04 03:40:35;;;;;;;2.83;1.80;;;14.80;90.30;;;;;;2057078;28;20039;-93
2022/07/04 03:41:36;;;;;;;2.55;1.70;;;14.80;90.40;;;;;;2065781;28;20026;-93
2022/07/04 03:42:37;;;;;;;3.53;1.80;;;14.80;90.40;;;;;;2081975;28;20104;-94
2022/07/04 03:43:37;;;;;;;3.35;1.80;;;14.80;90.40;;;;;;2073093;28;20037;-92
2022/07/04 03:44:38;;;;;;;5.40;2.08;;;14.80;90.40;;;;;;2074237;28;20084;-93
2022/07/04 03:45:39;;;;;;;3.50;1.90;;;14.80;90.40;;;;;;2065321;28;20130;-94
2022/07/04 03:46:39;;;;;;;2.97;2.03;;;14.80;90.40;;;;;;2065963;28;20121;-93
2022/07/04 03:47:40;;;;;;;3.47;1.75;;;14.80;90.40;;;;;;2065896;28;20049;-93
2022/07/04 03:48:43;;;;;;;3.80;1.98;;;14.80;90.40;;;;;;2081800;28;20026;-93
2022/07/04 03:49:44;;;;;;;3.55;1.85;;;14.80;90.40;;;;;;2082528;28;20029;-93
2022/07/04 03:50:45;;;;;;;2.60;1.65;;;14.90;90.50;;;;;;2082403;28;20047;-93
2022/07/04 03:51:45;;;;;;;3.38;1.90;;;14.90;90.40;;;;;;2074090;28;20117;-93
2022/07/04 03:52:46;;;;;;;3.25;1.75;;;14.90;90.40;;;;;;2065896;28;20370;-94
2022/07/04 03:53:47;;;;;;;3.75;1.95;;;14.90;90.40;;;;;;2082199;28;20499;-94
2022/07/04 03:54:48;;;;;;;3.72;2.15;;;14.90;90.40;;;;;;2073752;28;20041;-93
2022/07/04 03:55:49;;;;;;;4.05;2.00;;;14.90;90.40;;;;;;2074189;28;20428;-94
2022/07/04 03:56:49;;;;;;;3.55;1.83;;;14.90;90.40;;;;;;2080175;28;20498;-93
2022/07/04 03:57:50;;;;;;;5.25;2.08;;;14.90;90.40;;;;;;2074348;28;20045;-93
2022/07/04 03:58:51;;;;;;;4.28;2.00;;;14.90;90.50;;;;;;2066170;28;20133;-93
2022/07/04 03:59:51;;;;;;;3.70;1.80;;;14.90;90.50;;;;;;2064520;28;21146;-93
2022/07/04 04:00:52;;;;;;;3.95;1.90;;;14.90;90.50;;;;;;2074308;28;20029;-93
2022/07/04 04:01:53;;;;;;;3.65;1.90;;;15.00;90.50;;;;;;2074006;28;20069;-93
2022/07/04 04:02:53;;;;;;;3.55;2.20;;;15.00;90.50;;;;;;2082467;28;20041;-94
2022/07/04 04:05:30;;;;;;;3.22;1.85;;;15.00;90.50;;;;;;2073257;28;20049;-92
2022/07/04 04:06:31;;;;;;;3.75;1.80;;;14.90;90.50;;;;;;2089793;28;20398;-93
2022/07/04 04:07:31;;;;;;;2.95;1.95;;;15.00;90.50;;;;;;2082118;28;20033;-92
2022/07/04 04:08:32;;;;;;;5.03;2.00;;;15.00;90.50;;;;;;2058045;28;20089;-93
2022/07/04 04:09:35;;;;;;;3.55;1.90;;;15.00;90.50;;;;;;2058848;28;20118;-93
2022/07/04 04:10:36;;;;;;;4.10;2.00;;;15.00;90.60;;;;;;2074319;28;20141;-93
2022/07/04 04:11:37;;;;;;;4.10;2.30;;;15.00;90.60;;;;;;2069984;28;20045;-93
2022/07/04 04:12:37;;;;;;;2.90;1.92;;;15.00;90.60;;;;;;2074179;28;20030;-92
2022/07/04 04:13:38;;;;;;;3.08;1.70;;;15.00;90.60;;;;;;2081431;28;20068;-93
2022/07/04 04:14:39;;;;;;;4.43;2.10;;;15.10;90.60;;;;;;2073828;28;20507;-94
2022/07/04 04:15:39;;;;;;;3.05;2.05;;;15.10;90.60;;;;;;2073544;28;20064;-93
2022/07/04 04:16:42;;;;;;;2.33;1.77;;;15.10;90.60;;;;;;2079752;28;20107;-92
2022/07/04 04:17:43;;;;;;;2.83;1.80;;;15.10;90.60;;;;;;2074513;28;20089;-93
2022/07/04 04:18:43;;;;;;;3.28;1.92;;;15.10;90.60;;;;;;2081564;28;20081;-93
2022/07/04 04:19:44;;;;;;;3.47;1.77;;;15.20;90.60;;;;;;2090705;28;20521;-94
2022/07/04 04:20:45;;;;;;;3.83;2.03;;;15.20;90.60;;;;;;2073756;28;20029;-93
2022/07/04 04:21:46;;;;;;;2.70;2.00;;;15.20;90.60;;;;;;2073287;28;20038;-93
2022/07/04 04:22:46;;;;;;;3.22;1.80;;;15.20;90.60;;;;;;2073918;28;20107;-93
2022/07/04 04:23:47;;;;;;;4.25;2.05;;;15.30;90.60;;;;;;2065834;28;20125;-93
2022/07/04 04:24:48;;;;;;;3.22;1.90;;;15.30;90.50;;;;;;2072866;28;20038;-94
2022/07/04 04:25:49;;;;;;;3.83;1.85;;;15.30;90.50;;;;;;2073236;28;20034;-94
2022/07/04 04:26:50;;;;;;;3.58;2.10;;;15.40;90.50;;;;;;2065944;28;20114;-93
2022/07/04 04:27:50;;;;;;;3.92;2.20;;;15.40;90.40;;;;;;2077595;28;20175;-93
2022/07/04 04:28:51;;;;;;;3.05;2.05;;;15.40;90.40;;;;;;2065630;28;20489;-94
2022/07/04 04:29:53;;;;;;;5.32;2.10;;;15.40;90.30;;;;;;2073807;28;20029;-93
2022/07/04 04:30:54;;;;;;;3.03;2.05;;;15.50;90.30;;;;;;2074460;28;20061;-93
2022/07/04 04:31:55;;;;;;;4.93;2.00;;;15.50;90.30;;;;;;2066211;28;20045;-93
2022/07/04 04:32:56;;;;;;;5.15;2.30;;;15.50;90.30;;;;;;2082828;28;20530;-93
2022/07/04 04:33:57;;;;;;;3.38;1.58;;;15.50;90.30;;;;;;2082606;28;20045;-94
2022/07/04 04:34:58;;;;;;;3.35;1.98;;;15.60;90.60;;;;;;2081646;28;20049;-93
2022/07/04 04:36:02;;;;;;;3.35;1.98;;;15.60;90.30;;;;;;2073321;28;20030;-94
2022/07/04 04:37:03;;;;;;;3.60;1.90;;;15.60;90.30;;;;;;2074734;28;20042;-94
2022/07/04 04:38:03;;;;;;;3.08;2.00;;;15.70;90.20;;;;;;2082494;28;20040;-93
2022/07/04 04:39:04;;;;;;;4.47;1.92;;;15.70;90.20;;;;;;2075258;28;20041;-93
2022/07/04 04:40:06;;;;;;;2.60;1.70;;;15.70;90.20;;;;;;2068453;28;20042;-93
2022/07/04 04:41:06;;;;;;;3.45;1.83;;;15.70;90.10;;;;;;2076544;28;20049;-93
2022/07/04 04:42:07;;;;;;;2.83;1.70;;;15.70;90.10;;;;;;2068223;28;20034;-93
2022/07/04 04:43:08;;;;;;;3.80;2.15;;;15.80;90.10;;;;;;2081804;28;20093;-89
2022/07/04 04:44:08;;;;;;;4.18;2.00;;;15.80;90.10;;;;;;2080955;28;20060;-93
2022/07/04 04:45:10;;;;;;;3.72;2.00;;;15.80;90.00;;;;;;2078851;28;20109;-88
2022/07/04 04:46:10;;;;;;;4.72;2.00;;;15.80;90.00;;;;;;2075405;28;20015;-92
2022/07/04 04:47:11;;;;;;;2.70;1.75;;;15.80;90.00;;;;;;2069734;28;20069;-94
2022/07/04 04:48:12;;;;;;;3.33;2.08;;;15.80;90.00;;;;;;2067710;28;20133;-93
2022/07/04 04:49:13;;;;;;;3.47;2.03;;;15.80;90.00;;;;;;2075668;28;20038;-94
2022/07/04 04:50:16;;;;;;;3.78;1.80;;;15.80;90.00;;;;;;2077613;28;20096;-93
2022/07/04 04:51:16;;;;;;;2.78;1.70;;;15.80;90.00;;;;;;2084091;28;20168;-94
2022/07/04 04:52:17;;;;;;;3.65;1.98;;;15.80;90.00;;;;;;2090487;28;20111;-94
2022/07/04 04:53:18;;;;;;;2.70;1.75;;;15.90;90.00;;;;;;2082091;28;20034;-94
2022/07/04 04:54:18;;;;;;;3.97;1.83;;;15.90;90.00;;;;;;2065834;28;20448;-94
2022/07/04 04:55:19;;;;;;;3.53;1.92;;;15.90;90.00;;;;;;2080217;28;20404;-94
2022/07/04 04:56:20;;;;;;;2.75;1.70;;;15.90;90.00;;;;;;2081718;28;20428;-92
2022/07/04 04:57:21;;;;;;;3.50;1.77;;;16.00;90.00;;;;;;2082868;28;20037;-94
2022/07/04 04:58:22;;;;;;;2.25;1.48;;;16.00;89.90;;;;;;2066207;28;20048;-94
2022/07/04 04:59:23;;;;;;;2.72;1.70;;;16.00;89.90;;;;;;2074207;28;20124;-93
2022/07/04 05:00:24;;;;;;;2.88;1.80;;;16.10;89.90;;;;;;2081243;28;20041;-93
2022/07/04 05:01:26;;;;;;;2.58;1.65;;;16.10;89.80;;;;;;2074226;28;20512;-93
2022/07/04 05:02:27;;;;;;;4.13;1.67;;;16.20;89.80;;;;;;2074118;28;20050;-93
2022/07/04 05:03:28;;;;;;;3.50;1.80;;;16.20;89.60;;;;;;2074177;28;20041;-93
2022/07/04 05:04:29;;;;;;;2.50;1.45;;;16.20;89.50;;;;;;2082703;28;20040;-92
2022/07/04 05:05:29;;;;;;;4.00;1.77;;;16.40;89.50;;;;;;2079509;28;20120;-93
2022/07/04 05:06:30;;;;;;;3.75;2.03;;;16.40;89.40;;;;;;2073264;28;20049;-92
2022/07/04 05:07:33;;;;;;;2.85;1.70;;;16.40;89.20;;;;;;2073815;28;20066;-94
2022/07/04 05:08:34;;;;;;;4.18;2.03;;;16.50;89.10;;;;;;2065991;28;20404;-93
2022/07/04 05:09:35;;;;;;;5.38;1.80;;;16.50;89.00;;;;;;2066148;28;20034;-92
2022/07/04 05:10:35;;;;;;;3.20;1.75;;;16.60;88.90;;;;;;2065970;28;20048;-92
2022/07/04 05:11:36;;;;;;;3.22;1.70;;;16.70;88.80;;;;;;2074043;28;20136;-93
2022/07/04 05:12:37;;;;;;;3.50;1.67;;;16.80;88.70;;;;;;2073615;28;20034;-93
2022/07/04 05:13:38;;;;;;;3.05;1.58;;;16.90;88.50;;;;;;2074248;28;20096;-93
2022/07/04 05:14:38;;;;;;;2.95;1.52;;;16.90;88.30;;;;;;2073730;28;20026;-94
2022/07/04 05:15:39;;;;;;;3.15;1.73;;;17.00;88.10;;;;;;2082074;28;20125;-92
2022/07/04 05:16:40;;;;;;;2.78;1.70;;;17.10;88.00;;;;;;2082133;28;20431;-93
2022/07/04 05:17:41;;;;;;;3.03;1.50;;;17.10;87.80;;;;;;2076681;28;20045;-96
2022/07/04 05:18:41;;;;;;;3.45;1.60;;;17.20;87.60;;;;;;2084156;28;20083;-93
2022/07/04 05:19:42;;;;;;;3.85;1.50;;;17.30;87.50;;;;;;2073934;28;20049;-95
2022/07/04 05:20:43;;;;;;;2.88;1.50;;;17.40;87.40;;;;;;2083022;28;20149;-93
2022/07/04 05:21:44;;;;;;;2.80;1.40;;;17.40;87.10;;;;;;2074571;28;20077;-95
2022/07/04 05:22:44;;;;;;;4.00;1.67;;;17.50;87.00;;;;;;2074268;28;20064;-95
2022/07/04 05:23:45;;;;;;;3.15;1.40;;;17.50;86.80;;;;;;2066144;28;20037;-94